sensor_id;sensor_type;location;lat;lon;timestamp;temperature;humidity
21387;DHT22;10854;45.922;6.716;2024-02-26T00:00:03;6.60;76.50
21387;DHT22;10854;45.922;6.716;2024-02-26T00:02:37;6.60;76.50
21387;DHT22;10854;45.922;6.716;2024-02-26T00:05:07;6.50;77.00
21387;DHT22;10854;45.922;6.716;2024-02-26T00:07:36;6.50;77.40
21387;DHT22;10854;45.922;6.716;2024-02-26T00:10:06;6.40;78.50
21387;DHT22;10854;45.922;6.716;2024-02-26T00:12:35;6.40;78.00
21387;DHT22;10854;45.922;6.716;2024-02-26T00:15:05;6.40;78.40
21387;DHT22;10854;45.922;6.716;2024-02-26T00:17:33;6.40;78.60
21387;DHT22;10854;45.922;6.716;2024-02-26T00:20:03;6.40;79.10
21387;DHT22;10854;45.922;6.716;2024-02-26T00:22:41;6.30;79.10
21387;DHT22;10854;45.922;6.716;2024-02-26T00:25:10;6.30;79.40
21387;DHT22;10854;45.922;6.716;2024-02-26T00:27:40;6.30;79.50
21387;DHT22;10854;45.922;6.716;2024-02-26T00:30:10;6.30;80.00
21387;DHT22;10854;45.922;6.716;2024-02-26T00:32:40;6.30;80.00
21387;DHT22;10854;45.922;6.716;2024-02-26T00:35:09;6.30;80.20
21387;DHT22;10854;45.922;6.716;2024-02-26T00:37:38;6.30;80.20
21387;DHT22;10854;45.922;6.716;2024-02-26T00:40:07;6.30;80.30
21387;DHT22;10854;45.922;6.716;2024-02-26T00:42:48;6.30;80.50
21387;DHT22;10854;45.922;6.716;2024-02-26T00:45:16;6.30;80.70
21387;DHT22;10854;45.922;6.716;2024-02-26T00:47:47;6.30;81.80
21387;DHT22;10854;45.922;6.716;2024-02-26T00:50:16;6.20;81.10
21387;DHT22;10854;45.922;6.716;2024-02-26T00:52:47;6.20;81.30
21387;DHT22;10854;45.922;6.716;2024-02-26T00:55:17;6.20;81.50
21387;DHT22;10854;45.922;6.716;2024-02-26T00:57:46;6.30;81.70
21387;DHT22;10854;45.922;6.716;2024-02-26T01:00:15;6.30;81.80
21387;DHT22;10854;45.922;6.716;2024-02-26T01:02:44;6.30;82.10
21387;DHT22;10854;45.922;6.716;2024-02-26T01:05:15;6.30;82.10
21387;DHT22;10854;45.922;6.716;2024-02-26T01:07:45;6.30;82.30
21387;DHT22;10854;45.922;6.716;2024-02-26T01:10:20;6.20;82.60
21387;DHT22;10854;45.922;6.716;2024-02-26T01:12:48;6.20;82.90
21387;DHT22;10854;45.922;6.716;2024-02-26T01:15:17;6.20;83.20
21387;DHT22;10854;45.922;6.716;2024-02-26T01:17:47;6.20;83.70
21387;DHT22;10854;45.922;6.716;2024-02-26T01:20:16;6.20;84.20
21387;DHT22;10854;45.922;6.716;2024-02-26T01:22:44;6.20;84.40
21387;DHT22;10854;45.922;6.716;2024-02-26T01:25:13;6.20;84.50
21387;DHT22;10854;45.922;6.716;2024-02-26T01:27:44;6.20;84.80
21387;DHT22;10854;45.922;6.716;2024-02-26T01:30:13;6.20;85.00
21387;DHT22;10854;45.922;6.716;2024-02-26T01:32:44;6.20;85.00
21387;DHT22;10854;45.922;6.716;2024-02-26T01:35:12;6.10;85.20
21387;DHT22;10854;45.922;6.716;2024-02-26T01:37:41;6.10;85.50
21387;DHT22;10854;45.922;6.716;2024-02-26T01:40:10;6.20;85.80
21387;DHT22;10854;45.922;6.716;2024-02-26T01:42:39;6.10;86.20
21387;DHT22;10854;45.922;6.716;2024-02-26T01:45:16;6.10;86.70
21387;DHT22;10854;45.922;6.716;2024-02-26T01:47:53;6.00;87.80
21387;DHT22;10854;45.922;6.716;2024-02-26T01:50:22;5.90;88.90
21387;DHT22;10854;45.922;6.716;2024-02-26T01:52:51;5.80;90.10
21387;DHT22;10854;45.922;6.716;2024-02-26T01:55:22;5.70;91.10
21387;DHT22;10854;45.922;6.716;2024-02-26T01:57:52;5.60;92.10
21387;DHT22;10854;45.922;6.716;2024-02-26T02:00:23;5.50;93.10
21387;DHT22;10854;45.922;6.716;2024-02-26T02:02:52;5.40;94.60
21387;DHT22;10854;45.922;6.716;2024-02-26T02:05:25;5.30;96.00
21387;DHT22;10854;45.922;6.716;2024-02-26T02:07:54;5.20;97.30
21387;DHT22;10854;45.922;6.716;2024-02-26T02:10:23;5.10;98.70
21387;DHT22;10854;45.922;6.716;2024-02-26T02:12:54;5.10;99.90
21387;DHT22;10854;45.922;6.716;2024-02-26T02:15:23;5.10;99.90
21387;DHT22;10854;45.922;6.716;2024-02-26T02:17:51;5.00;99.90
21387;DHT22;10854;45.922;6.716;2024-02-26T02:20:47;4.90;99.90
21387;DHT22;10854;45.922;6.716;2024-02-26T02:23:16;4.90;99.90
21387;DHT22;10854;45.922;6.716;2024-02-26T02:25:46;4.90;99.90
21387;DHT22;10854;45.922;6.716;2024-02-26T02:28:15;4.80;99.90
21387;DHT22;10854;45.922;6.716;2024-02-26T02:30:44;4.80;99.90
21387;DHT22;10854;45.922;6.716;2024-02-26T02:33:12;4.80;99.90
21387;DHT22;10854;45.922;6.716;2024-02-26T02:35:43;4.80;99.90
21387;DHT22;10854;45.922;6.716;2024-02-26T02:38:16;4.70;99.90
21387;DHT22;10854;45.922;6.716;2024-02-26T02:40:45;4.70;99.90
21387;DHT22;10854;45.922;6.716;2024-02-26T02:43:13;4.70;99.90
21387;DHT22;10854;45.922;6.716;2024-02-26T02:45:43;4.70;99.90
21387;DHT22;10854;45.922;6.716;2024-02-26T02:48:12;4.70;99.90
21387;DHT22;10854;45.922;6.716;2024-02-26T02:50:41;4.70;99.90
21387;DHT22;10854;45.922;6.716;2024-02-26T02:53:11;4.70;99.90
21387;DHT22;10854;45.922;6.716;2024-02-26T02:55:41;4.70;99.90
21387;DHT22;10854;45.922;6.716;2024-02-26T02:58:09;4.70;99.90
21387;DHT22;10854;45.922;6.716;2024-02-26T03:00:38;4.80;99.90
21387;DHT22;10854;45.922;6.716;2024-02-26T03:03:06;4.70;99.90
21387;DHT22;10854;45.922;6.716;2024-02-26T03:05:35;4.70;99.90
21387;DHT22;10854;45.922;6.716;2024-02-26T03:08:04;4.70;99.90
21387;DHT22;10854;45.922;6.716;2024-02-26T03:10:33;4.70;99.90
21387;DHT22;10854;45.922;6.716;2024-02-26T03:13:01;4.70;99.90
21387;DHT22;10854;45.922;6.716;2024-02-26T03:15:31;4.70;99.90
21387;DHT22;10854;45.922;6.716;2024-02-26T03:18:02;4.70;99.90
21387;DHT22;10854;45.922;6.716;2024-02-26T03:20:31;4.60;99.90
21387;DHT22;10854;45.922;6.716;2024-02-26T03:22:59;4.70;99.90
21387;DHT22;10854;45.922;6.716;2024-02-26T03:25:32;4.60;99.90
21387;DHT22;10854;45.922;6.716;2024-02-26T03:28:00;4.60;99.90
21387;DHT22;10854;45.922;6.716;2024-02-26T03:30:29;4.50;99.90
21387;DHT22;10854;45.922;6.716;2024-02-26T03:32:58;4.50;99.90
21387;DHT22;10854;45.922;6.716;2024-02-26T03:35:26;4.50;99.90
21387;DHT22;10854;45.922;6.716;2024-02-26T03:37:55;4.50;99.90
21387;DHT22;10854;45.922;6.716;2024-02-26T03:40:24;4.50;99.90
21387;DHT22;10854;45.922;6.716;2024-02-26T03:42:52;4.50;99.90
21387;DHT22;10854;45.922;6.716;2024-02-26T03:45:22;4.50;99.90
21387;DHT22;10854;45.922;6.716;2024-02-26T03:47:52;4.40;99.90
21387;DHT22;10854;45.922;6.716;2024-02-26T03:50:20;4.40;99.90
21387;DHT22;10854;45.922;6.716;2024-02-26T03:52:49;4.50;99.90
21387;DHT22;10854;45.922;6.716;2024-02-26T03:55:17;4.50;99.90
21387;DHT22;10854;45.922;6.716;2024-02-26T03:57:52;4.50;99.90
21387;DHT22;10854;45.922;6.716;2024-02-26T04:00:22;4.40;99.90
21387;DHT22;10854;45.922;6.716;2024-02-26T04:02:50;4.40;99.90
21387;DHT22;10854;45.922;6.716;2024-02-26T04:05:19;4.40;99.90
21387;DHT22;10854;45.922;6.716;2024-02-26T04:07:47;4.40;99.90
21387;DHT22;10854;45.922;6.716;2024-02-26T04:10:16;4.40;99.90
21387;DHT22;10854;45.922;6.716;2024-02-26T04:12:45;4.40;99.90
21387;DHT22;10854;45.922;6.716;2024-02-26T04:15:14;4.40;99.90
21387;DHT22;10854;45.922;6.716;2024-02-26T04:17:42;4.40;99.90
21387;DHT22;10854;45.922;6.716;2024-02-26T04:20:14;4.40;99.90
21387;DHT22;10854;45.922;6.716;2024-02-26T04:22:46;4.40;99.90
21387;DHT22;10854;45.922;6.716;2024-02-26T04:25:15;4.40;99.90
21387;DHT22;10854;45.922;6.716;2024-02-26T04:27:44;4.40;99.90
21387;DHT22;10854;45.922;6.716;2024-02-26T04:30:13;4.40;99.90
21387;DHT22;10854;45.922;6.716;2024-02-26T04:32:41;4.40;99.90
21387;DHT22;10854;45.922;6.716;2024-02-26T04:35:10;4.40;99.90
21387;DHT22;10854;45.922;6.716;2024-02-26T04:37:39;4.40;99.90
21387;DHT22;10854;45.922;6.716;2024-02-26T04:40:08;4.40;99.90
21387;DHT22;10854;45.922;6.716;2024-02-26T04:42:36;4.40;99.90
21387;DHT22;10854;45.922;6.716;2024-02-26T04:45:05;4.40;99.90
21387;DHT22;10854;45.922;6.716;2024-02-26T04:47:35;4.40;99.90
21387;DHT22;10854;45.922;6.716;2024-02-26T04:50:04;4.40;99.90
21387;DHT22;10854;45.922;6.716;2024-02-26T04:52:33;4.40;99.90
21387;DHT22;10854;45.922;6.716;2024-02-26T04:55:02;4.40;99.90
21387;DHT22;10854;45.922;6.716;2024-02-26T04:57:31;4.30;99.90
21387;DHT22;10854;45.922;6.716;2024-02-26T05:00:01;4.30;99.90
21387;DHT22;10854;45.922;6.716;2024-02-26T05:02:29;4.30;99.90
21387;DHT22;10854;45.922;6.716;2024-02-26T05:05:01;4.30;99.90
21387;DHT22;10854;45.922;6.716;2024-02-26T05:07:30;4.30;99.90
21387;DHT22;10854;45.922;6.716;2024-02-26T05:09:59;4.30;99.90
21387;DHT22;10854;45.922;6.716;2024-02-26T05:12:27;4.30;99.90
21387;DHT22;10854;45.922;6.716;2024-02-26T05:14:56;4.40;99.90
21387;DHT22;10854;45.922;6.716;2024-02-26T05:17:25;4.30;99.90
21387;DHT22;10854;45.922;6.716;2024-02-26T05:19:54;4.40;99.90
21387;DHT22;10854;45.922;6.716;2024-02-26T05:22:23;4.30;99.90
21387;DHT22;10854;45.922;6.716;2024-02-26T05:24:52;4.30;99.90
21387;DHT22;10854;45.922;6.716;2024-02-26T05:27:22;4.30;99.90
21387;DHT22;10854;45.922;6.716;2024-02-26T05:29:53;4.30;99.90
21387;DHT22;10854;45.922;6.716;2024-02-26T05:32:22;4.30;99.90
21387;DHT22;10854;45.922;6.716;2024-02-26T05:34:50;4.30;99.90
21387;DHT22;10854;45.922;6.716;2024-02-26T05:37:20;4.30;99.90
21387;DHT22;10854;45.922;6.716;2024-02-26T05:39:48;4.30;99.90
21387;DHT22;10854;45.922;6.716;2024-02-26T05:42:17;4.30;99.90
21387;DHT22;10854;45.922;6.716;2024-02-26T05:44:45;4.30;99.90
21387;DHT22;10854;45.922;6.716;2024-02-26T05:47:14;4.30;99.90
21387;DHT22;10854;45.922;6.716;2024-02-26T05:49:43;4.30;99.90
21387;DHT22;10854;45.922;6.716;2024-02-26T05:52:12;4.30;99.90
21387;DHT22;10854;45.922;6.716;2024-02-26T05:54:40;4.30;99.90
21387;DHT22;10854;45.922;6.716;2024-02-26T05:57:09;4.30;99.90
21387;DHT22;10854;45.922;6.716;2024-02-26T05:59:37;4.20;99.90
21387;DHT22;10854;45.922;6.716;2024-02-26T06:02:06;4.20;99.90
21387;DHT22;10854;45.922;6.716;2024-02-26T06:04:34;4.20;99.90
21387;DHT22;10854;45.922;6.716;2024-02-26T06:07:05;4.20;99.90
21387;DHT22;10854;45.922;6.716;2024-02-26T06:09:33;4.20;99.90
21387;DHT22;10854;45.922;6.716;2024-02-26T06:12:02;4.20;99.90
21387;DHT22;10854;45.922;6.716;2024-02-26T06:14:30;4.30;99.90
21387;DHT22;10854;45.922;6.716;2024-02-26T06:17:03;4.30;99.90
21387;DHT22;10854;45.922;6.716;2024-02-26T06:19:32;4.30;99.90
21387;DHT22;10854;45.922;6.716;2024-02-26T06:22:01;4.30;99.90
21387;DHT22;10854;45.922;6.716;2024-02-26T06:24:29;4.30;99.90
21387;DHT22;10854;45.922;6.716;2024-02-26T06:27:00;4.30;99.90
21387;DHT22;10854;45.922;6.716;2024-02-26T06:29:29;4.40;99.90
21387;DHT22;10854;45.922;6.716;2024-02-26T06:31:57;4.40;99.90
21387;DHT22;10854;45.922;6.716;2024-02-26T06:34:27;4.40;99.90
21387;DHT22;10854;45.922;6.716;2024-02-26T06:36:55;4.40;99.90
21387;DHT22;10854;45.922;6.716;2024-02-26T06:39:27;4.50;99.90
21387;DHT22;10854;45.922;6.716;2024-02-26T06:41:56;4.50;99.90
21387;DHT22;10854;45.922;6.716;2024-02-26T06:44:28;4.50;99.90
21387;DHT22;10854;45.922;6.716;2024-02-26T06:47:01;4.60;99.90
21387;DHT22;10854;45.922;6.716;2024-02-26T06:49:30;4.60;99.90
21387;DHT22;10854;45.922;6.716;2024-02-26T06:51:59;4.70;99.90
21387;DHT22;10854;45.922;6.716;2024-02-26T06:54:27;4.70;99.90
21387;DHT22;10854;45.922;6.716;2024-02-26T06:56:56;4.70;99.90
21387;DHT22;10854;45.922;6.716;2024-02-26T06:59:24;4.80;99.90
21387;DHT22;10854;45.922;6.716;2024-02-26T07:01:53;4.80;99.90
21387;DHT22;10854;45.922;6.716;2024-02-26T07:04:22;4.90;99.90
21387;DHT22;10854;45.922;6.716;2024-02-26T07:06:51;4.90;99.90
21387;DHT22;10854;45.922;6.716;2024-02-26T07:09:20;4.90;99.90
21387;DHT22;10854;45.922;6.716;2024-02-26T07:11:50;5.00;99.90
21387;DHT22;10854;45.922;6.716;2024-02-26T07:14:19;5.00;99.90
21387;DHT22;10854;45.922;6.716;2024-02-26T07:16:48;5.10;99.90
21387;DHT22;10854;45.922;6.716;2024-02-26T07:19:17;5.10;99.90
21387;DHT22;10854;45.922;6.716;2024-02-26T07:21:47;5.10;99.90
21387;DHT22;10854;45.922;6.716;2024-02-26T07:24:17;5.10;99.90
21387;DHT22;10854;45.922;6.716;2024-02-26T07:26:47;5.10;99.90
21387;DHT22;10854;45.922;6.716;2024-02-26T07:29:16;5.10;99.90
21387;DHT22;10854;45.922;6.716;2024-02-26T07:31:47;5.20;99.90
21387;DHT22;10854;45.922;6.716;2024-02-26T07:34:16;5.20;99.90
21387;DHT22;10854;45.922;6.716;2024-02-26T07:36:45;5.30;99.90
21387;DHT22;10854;45.922;6.716;2024-02-26T07:39:13;5.30;99.90
21387;DHT22;10854;45.922;6.716;2024-02-26T07:41:43;5.40;99.90
21387;DHT22;10854;45.922;6.716;2024-02-26T07:44:15;5.50;99.90
21387;DHT22;10854;45.922;6.716;2024-02-26T07:46:44;5.60;99.90
21387;DHT22;10854;45.922;6.716;2024-02-26T07:49:12;5.70;99.90
21387;DHT22;10854;45.922;6.716;2024-02-26T07:51:41;5.70;99.90
21387;DHT22;10854;45.922;6.716;2024-02-26T07:54:10;5.90;99.90
21387;DHT22;10854;45.922;6.716;2024-02-26T07:56:40;6.00;99.90
21387;DHT22;10854;45.922;6.716;2024-02-26T07:59:08;6.00;99.90
21387;DHT22;10854;45.922;6.716;2024-02-26T08:01:37;6.20;99.90
21387;DHT22;10854;45.922;6.716;2024-02-26T08:04:07;6.30;99.90
21387;DHT22;10854;45.922;6.716;2024-02-26T08:06:36;6.40;99.90
21387;DHT22;10854;45.922;6.716;2024-02-26T08:09:04;6.60;99.90
21387;DHT22;10854;45.922;6.716;2024-02-26T08:11:34;6.70;99.90
21387;DHT22;10854;45.922;6.716;2024-02-26T08:14:03;6.80;99.90
21387;DHT22;10854;45.922;6.716;2024-02-26T08:16:31;6.80;99.90
21387;DHT22;10854;45.922;6.716;2024-02-26T08:19:00;6.90;99.90
21387;DHT22;10854;45.922;6.716;2024-02-26T08:21:29;7.00;99.90
21387;DHT22;10854;45.922;6.716;2024-02-26T08:23:57;7.00;99.90
21387;DHT22;10854;45.922;6.716;2024-02-26T08:26:26;7.10;99.90
21387;DHT22;10854;45.922;6.716;2024-02-26T08:28:55;7.10;99.90
21387;DHT22;10854;45.922;6.716;2024-02-26T08:31:24;7.10;99.90
21387;DHT22;10854;45.922;6.716;2024-02-26T08:33:52;7.10;99.90
21387;DHT22;10854;45.922;6.716;2024-02-26T08:36:21;7.20;99.90
21387;DHT22;10854;45.922;6.716;2024-02-26T08:38:50;7.20;99.90
21387;DHT22;10854;45.922;6.716;2024-02-26T08:41:19;7.20;99.90
21387;DHT22;10854;45.922;6.716;2024-02-26T08:43:48;7.30;99.90
21387;DHT22;10854;45.922;6.716;2024-02-26T08:46:16;7.30;99.90
21387;DHT22;10854;45.922;6.716;2024-02-26T08:48:45;7.30;99.90
21387;DHT22;10854;45.922;6.716;2024-02-26T08:51:13;7.30;99.90
21387;DHT22;10854;45.922;6.716;2024-02-26T08:53:42;7.40;99.90
21387;DHT22;10854;45.922;6.716;2024-02-26T08:56:10;7.50;99.90
21387;DHT22;10854;45.922;6.716;2024-02-26T08:58:45;7.60;99.90
21387;DHT22;10854;45.922;6.716;2024-02-26T09:01:41;7.70;99.90
21387;DHT22;10854;45.922;6.716;2024-02-26T09:04:11;7.80;99.90
21387;DHT22;10854;45.922;6.716;2024-02-26T09:06:39;7.90;99.90
21387;DHT22;10854;45.922;6.716;2024-02-26T09:09:08;8.00;99.90
21387;DHT22;10854;45.922;6.716;2024-02-26T09:11:36;8.10;99.90
21387;DHT22;10854;45.922;6.716;2024-02-26T09:14:05;8.20;99.90
21387;DHT22;10854;45.922;6.716;2024-02-26T09:16:34;8.30;99.90
21387;DHT22;10854;45.922;6.716;2024-02-26T09:19:02;8.40;99.90
21387;DHT22;10854;45.922;6.716;2024-02-26T09:21:30;8.60;99.90
21387;DHT22;10854;45.922;6.716;2024-02-26T09:23:59;8.70;99.90
21387;DHT22;10854;45.922;6.716;2024-02-26T09:26:27;8.80;99.90
21387;DHT22;10854;45.922;6.716;2024-02-26T09:28:56;8.90;99.90
21387;DHT22;10854;45.922;6.716;2024-02-26T09:31:24;8.90;99.90
21387;DHT22;10854;45.922;6.716;2024-02-26T09:33:53;9.00;99.90
21387;DHT22;10854;45.922;6.716;2024-02-26T09:36:22;9.00;99.90
21387;DHT22;10854;45.922;6.716;2024-02-26T09:38:51;9.20;99.90
21387;DHT22;10854;45.922;6.716;2024-02-26T09:41:22;9.30;99.90
21387;DHT22;10854;45.922;6.716;2024-02-26T09:43:56;9.40;99.90
21387;DHT22;10854;45.922;6.716;2024-02-26T09:46:25;9.40;99.90
21387;DHT22;10854;45.922;6.716;2024-02-26T09:48:54;9.40;99.80
21387;DHT22;10854;45.922;6.716;2024-02-26T09:51:24;9.40;97.70
21387;DHT22;10854;45.922;6.716;2024-02-26T09:53:59;9.40;97.40
21387;DHT22;10854;45.922;6.716;2024-02-26T09:56:30;9.50;97.30
21387;DHT22;10854;45.922;6.716;2024-02-26T09:59:03;9.60;97.70
21387;DHT22;10854;45.922;6.716;2024-02-26T10:01:34;9.70;98.00
21387;DHT22;10854;45.922;6.716;2024-02-26T10:04:03;9.80;97.30
21387;DHT22;10854;45.922;6.716;2024-02-26T10:06:33;9.90;96.50
21387;DHT22;10854;45.922;6.716;2024-02-26T10:09:02;9.90;94.90
21387;DHT22;10854;45.922;6.716;2024-02-26T10:11:34;10.00;92.70
21387;DHT22;10854;45.922;6.716;2024-02-26T10:14:03;10.10;91.30
21387;DHT22;10854;45.922;6.716;2024-02-26T10:16:32;10.20;90.30
21387;DHT22;10854;45.922;6.716;2024-02-26T10:19:02;10.20;88.50
21387;DHT22;10854;45.922;6.716;2024-02-26T10:21:31;10.30;86.90
21387;DHT22;10854;45.922;6.716;2024-02-26T10:23:59;10.50;85.40
21387;DHT22;10854;45.922;6.716;2024-02-26T10:26:27;10.60;83.60
21387;DHT22;10854;45.922;6.716;2024-02-26T10:28:59;10.70;82.20
21387;DHT22;10854;45.922;6.716;2024-02-26T10:31:31;10.80;81.00
21387;DHT22;10854;45.922;6.716;2024-02-26T10:34:00;10.80;79.50
21387;DHT22;10854;45.922;6.716;2024-02-26T10:36:34;10.90;78.50
21387;DHT22;10854;45.922;6.716;2024-02-26T10:39:05;10.90;78.20
21387;DHT22;10854;45.922;6.716;2024-02-26T10:41:34;11.00;78.00
21387;DHT22;10854;45.922;6.716;2024-02-26T10:44:03;11.10;76.30
21387;DHT22;10854;45.922;6.716;2024-02-26T10:46:31;11.20;76.30
21387;DHT22;10854;45.922;6.716;2024-02-26T10:49:01;11.40;77.20
21387;DHT22;10854;45.922;6.716;2024-02-26T10:51:31;11.60;77.50
21387;DHT22;10854;45.922;6.716;2024-02-26T10:54:00;11.80;77.60
21387;DHT22;10854;45.922;6.716;2024-02-26T10:56:29;12.00;77.90
21387;DHT22;10854;45.922;6.716;2024-02-26T10:59:01;12.20;77.00
21387;DHT22;10854;45.922;6.716;2024-02-26T11:01:30;12.30;76.00
21387;DHT22;10854;45.922;6.716;2024-02-26T11:04:02;12.30;71.70
21387;DHT22;10854;45.922;6.716;2024-02-26T11:06:32;12.20;71.60
21387;DHT22;10854;45.922;6.716;2024-02-26T11:09:02;12.20;72.10
21387;DHT22;10854;45.922;6.716;2024-02-26T11:11:32;12.20;72.50
21387;DHT22;10854;45.922;6.716;2024-02-26T11:14:05;12.20;72.50
21387;DHT22;10854;45.922;6.716;2024-02-26T11:16:35;12.40;72.10
21387;DHT22;10854;45.922;6.716;2024-02-26T11:19:06;12.60;70.40
21387;DHT22;10854;45.922;6.716;2024-02-26T11:21:35;12.70;68.00
21387;DHT22;10854;45.922;6.716;2024-02-26T11:24:12;12.80;66.70
21387;DHT22;10854;45.922;6.716;2024-02-26T11:26:54;12.80;66.30
21387;DHT22;10854;45.922;6.716;2024-02-26T11:29:39;12.90;66.10
21387;DHT22;10854;45.922;6.716;2024-02-26T11:32:10;13.10;65.60
21387;DHT22;10854;45.922;6.716;2024-02-26T11:34:39;13.20;63.00
21387;DHT22;10854;45.922;6.716;2024-02-26T11:37:16;13.30;61.80
21387;DHT22;10854;45.922;6.716;2024-02-26T11:39:45;13.30;61.00
21387;DHT22;10854;45.922;6.716;2024-02-26T11:42:16;13.30;61.80
21387;DHT22;10854;45.922;6.716;2024-02-26T11:44:45;13.60;62.50
21387;DHT22;10854;45.922;6.716;2024-02-26T11:47:19;13.80;62.40
21387;DHT22;10854;45.922;6.716;2024-02-26T11:49:49;14.10;62.40
21387;DHT22;10854;45.922;6.716;2024-02-26T11:52:17;14.30;61.70
21387;DHT22;10854;45.922;6.716;2024-02-26T11:54:53;14.40;60.60
21387;DHT22;10854;45.922;6.716;2024-02-26T11:57:38;14.50;59.70
21387;DHT22;10854;45.922;6.716;2024-02-26T12:00:16;14.50;59.30
21387;DHT22;10854;45.922;6.716;2024-02-26T12:02:52;14.60;59.10
21387;DHT22;10854;45.922;6.716;2024-02-26T12:05:35;14.70;59.10
21387;DHT22;10854;45.922;6.716;2024-02-26T12:08:07;14.70;59.10
21387;DHT22;10854;45.922;6.716;2024-02-26T12:10:39;14.70;59.00
21387;DHT22;10854;45.922;6.716;2024-02-26T12:13:15;14.70;58.60
21387;DHT22;10854;45.922;6.716;2024-02-26T12:18:20;14.80;57.90
21387;DHT22;10854;45.922;6.716;2024-02-26T12:21:03;14.80;58.00
21387;DHT22;10854;45.922;6.716;2024-02-26T12:23:37;14.90;57.70
21387;DHT22;10854;45.922;6.716;2024-02-26T12:26:06;15.00;57.60
21387;DHT22;10854;45.922;6.716;2024-02-26T12:28:41;14.90;56.70
21387;DHT22;10854;45.922;6.716;2024-02-26T12:31:09;14.70;57.20
21387;DHT22;10854;45.922;6.716;2024-02-26T12:33:38;14.60;57.20
21387;DHT22;10854;45.922;6.716;2024-02-26T12:36:07;14.70;57.10
21387;DHT22;10854;45.922;6.716;2024-02-26T12:38:35;14.70;56.30
21387;DHT22;10854;45.922;6.716;2024-02-26T12:41:05;14.70;57.20
21387;DHT22;10854;45.922;6.716;2024-02-26T12:43:39;14.80;57.50
21387;DHT22;10854;45.922;6.716;2024-02-26T12:46:07;15.00;57.30
21387;DHT22;10854;45.922;6.716;2024-02-26T12:48:38;15.10;57.20
21387;DHT22;10854;45.922;6.716;2024-02-26T12:51:08;15.40;57.30
21387;DHT22;10854;45.922;6.716;2024-02-26T12:53:39;15.60;57.40
21387;DHT22;10854;45.922;6.716;2024-02-26T12:56:09;15.80;56.70
21387;DHT22;10854;45.922;6.716;2024-02-26T12:58:39;15.70;55.20
21387;DHT22;10854;45.922;6.716;2024-02-26T13:01:14;15.70;55.30
21387;DHT22;10854;45.922;6.716;2024-02-26T13:03:43;15.60;55.30
21387;DHT22;10854;45.922;6.716;2024-02-26T13:06:13;15.50;55.60
21387;DHT22;10854;45.922;6.716;2024-02-26T13:08:43;15.40;55.70
21387;DHT22;10854;45.922;6.716;2024-02-26T13:11:13;15.30;55.40
21387;DHT22;10854;45.922;6.716;2024-02-26T13:13:42;15.30;55.50
21387;DHT22;10854;45.922;6.716;2024-02-26T13:16:14;15.30;55.40
21387;DHT22;10854;45.922;6.716;2024-02-26T13:18:43;15.30;55.00
21387;DHT22;10854;45.922;6.716;2024-02-26T13:21:14;15.20;55.20
21387;DHT22;10854;45.922;6.716;2024-02-26T13:23:45;15.20;54.70
21387;DHT22;10854;45.922;6.716;2024-02-26T13:26:16;15.20;54.50
21387;DHT22;10854;45.922;6.716;2024-02-26T13:28:47;15.10;54.20
21387;DHT22;10854;45.922;6.716;2024-02-26T13:31:15;15.00;54.20
21387;DHT22;10854;45.922;6.716;2024-02-26T13:33:46;15.10;54.40
21387;DHT22;10854;45.922;6.716;2024-02-26T13:36:17;15.20;54.30
21387;DHT22;10854;45.922;6.716;2024-02-26T13:38:56;15.50;53.30
21387;DHT22;10854;45.922;6.716;2024-02-26T13:41:24;15.80;53.60
21387;DHT22;10854;45.922;6.716;2024-02-26T13:43:55;16.50;54.20
21387;DHT22;10854;45.922;6.716;2024-02-26T13:46:23;17.30;53.60
21387;DHT22;10854;45.922;6.716;2024-02-26T13:48:53;17.70;52.30
21387;DHT22;10854;45.922;6.716;2024-02-26T13:51:22;18.00;51.50
21387;DHT22;10854;45.922;6.716;2024-02-26T13:53:51;18.60;50.50
21387;DHT22;10854;45.922;6.716;2024-02-26T13:56:19;19.00;49.80
21387;DHT22;10854;45.922;6.716;2024-02-26T13:58:48;19.50;47.70
21387;DHT22;10854;45.922;6.716;2024-02-26T14:01:16;19.60;46.60
21387;DHT22;10854;45.922;6.716;2024-02-26T14:03:45;19.70;45.50
21387;DHT22;10854;45.922;6.716;2024-02-26T14:06:14;19.80;46.40
21387;DHT22;10854;45.922;6.716;2024-02-26T14:08:42;20.30;46.70
21387;DHT22;10854;45.922;6.716;2024-02-26T14:11:11;20.80;46.20
21387;DHT22;10854;45.922;6.716;2024-02-26T14:13:44;21.00;43.90
21387;DHT22;10854;45.922;6.716;2024-02-26T14:16:14;20.90;43.70
21387;DHT22;10854;45.922;6.716;2024-02-26T14:18:44;20.80;43.60
21387;DHT22;10854;45.922;6.716;2024-02-26T14:21:15;20.60;41.80
21387;DHT22;10854;45.922;6.716;2024-02-26T14:23:44;20.40;42.00
21387;DHT22;10854;45.922;6.716;2024-02-26T14:26:12;20.50;43.00
21387;DHT22;10854;45.922;6.716;2024-02-26T14:28:41;20.60;43.10
21387;DHT22;10854;45.922;6.716;2024-02-26T14:31:09;20.40;43.20
21387;DHT22;10854;45.922;6.716;2024-02-26T14:33:38;20.10;43.00
21387;DHT22;10854;45.922;6.716;2024-02-26T14:36:10;19.90;43.80
21387;DHT22;10854;45.922;6.716;2024-02-26T14:38:39;19.60;43.90
21387;DHT22;10854;45.922;6.716;2024-02-26T14:41:07;19.30;43.70
21387;DHT22;10854;45.922;6.716;2024-02-26T14:43:36;18.90;44.40
21387;DHT22;10854;45.922;6.716;2024-02-26T14:46:06;19.00;44.70
21387;DHT22;10854;45.922;6.716;2024-02-26T14:48:35;18.90;42.80
21387;DHT22;10854;45.922;6.716;2024-02-26T14:51:03;18.50;41.90
21387;DHT22;10854;45.922;6.716;2024-02-26T14:53:34;18.10;42.70
21387;DHT22;10854;45.922;6.716;2024-02-26T14:56:03;18.10;43.20
21387;DHT22;10854;45.922;6.716;2024-02-26T14:58:31;18.10;42.90
21387;DHT22;10854;45.922;6.716;2024-02-26T15:01:00;18.40;43.70
21387;DHT22;10854;45.922;6.716;2024-02-26T15:03:28;18.50;43.00
21387;DHT22;10854;45.922;6.716;2024-02-26T15:05:57;18.40;43.30
21387;DHT22;10854;45.922;6.716;2024-02-26T15:08:26;18.40;43.50
21387;DHT22;10854;45.922;6.716;2024-02-26T15:10:54;18.50;43.80
21387;DHT22;10854;45.922;6.716;2024-02-26T15:13:23;18.80;44.00
21387;DHT22;10854;45.922;6.716;2024-02-26T15:15:51;19.20;43.30
21387;DHT22;10854;45.922;6.716;2024-02-26T15:18:20;19.30;40.80
21387;DHT22;10854;45.922;6.716;2024-02-26T15:20:49;19.20;40.40
21387;DHT22;10854;45.922;6.716;2024-02-26T15:23:17;19.20;40.70
21387;DHT22;10854;45.922;6.716;2024-02-26T15:25:46;19.00;38.50
21387;DHT22;10854;45.922;6.716;2024-02-26T15:28:14;18.60;39.70
21387;DHT22;10854;45.922;6.716;2024-02-26T15:30:44;18.30;40.00
21387;DHT22;10854;45.922;6.716;2024-02-26T15:33:12;17.90;40.50
21387;DHT22;10854;45.922;6.716;2024-02-26T15:35:41;17.30;39.70
21387;DHT22;10854;45.922;6.716;2024-02-26T15:38:13;16.60;40.10
21387;DHT22;10854;45.922;6.716;2024-02-26T15:40:41;15.80;41.60
21387;DHT22;10854;45.922;6.716;2024-02-26T15:43:10;15.30;42.70
21387;DHT22;10854;45.922;6.716;2024-02-26T15:45:39;14.90;43.40
21387;DHT22;10854;45.922;6.716;2024-02-26T15:48:08;14.60;44.20
21387;DHT22;10854;45.922;6.716;2024-02-26T15:50:37;14.40;44.80
21387;DHT22;10854;45.922;6.716;2024-02-26T15:53:09;14.50;45.00
21387;DHT22;10854;45.922;6.716;2024-02-26T15:55:37;14.90;45.00
21387;DHT22;10854;45.922;6.716;2024-02-26T15:58:09;15.30;44.80